Time;durP1;ratioP1;P1;durP2;ratioP2;P2;SDS_P1;SDS_P2;PMS_P1;PMS_P2;Temp;Humidity;BMP_temperature;BMP_pressure;BME280_temperature;BME280_humidity;BME280_pressure;Samples;Min_cycle;Max_cycle;Signal;HPM_P1;HPM_P2
2022/11/27 00:01:38;;;;;;;13.73;8.65;;;;;;;;;;4980739;28;20077;-69
2022/11/27 00:04:08;;;;;;;49.22;8.88;;;;;;;;;;4981297;28;20043;-69
2022/11/27 00:06:34;;;;;;;22.05;9.93;;;;;;;;;;4981754;28;20042;-69
2022/11/27 00:09:03;;;;;;;18.67;9.52;;;;;;;;;;4981661;28;20034;-70
2022/11/27 00:11:30;;;;;;;18.13;8.77;;;;;;;;;;4980865;28;20077;-70
2022/11/27 00:13:56;;;;;;;11.98;8.38;;;;;;;;;;4980515;28;20095;-70
2022/11/27 00:16:23;;;;;;;11.18;8.40;;;;;;;;;;4981056;28;20124;-70
2022/11/27 00:18:49;;;;;;;13.55;8.75;;;;;;;;;;4981083;28;20054;-70
2022/11/27 00:21:18;;;;;;;9.50;8.15;;;;;;;;;;4980978;28;20038;-70
2022/11/27 00:23:44;;;;;;;17.75;8.85;;;;;;;;;;4980540;28;20056;-70
2022/11/27 00:26:10;;;;;;;20.40;8.75;;;;;;;;;;4980992;28;20426;-72
2022/11/27 00:28:36;;;;;;;14.95;8.27;;;;;;;;;;4981707;28;20057;-69
2022/11/27 00:31:11;;;;;;;10.30;8.45;;;;;;;;;;4981238;28;20050;-69
2022/11/27 00:33:36;;;;;;;11.05;7.95;;;;;;;;;;4978955;28;20573;-67
2022/11/27 00:36:03;;;;;;;15.55;8.73;;;;;;;;;;4980273;28;20145;-67
2022/11/27 00:38:29;;;;;;;11.55;9.05;;;;;;;;;;4981207;28;20057;-70
2022/11/27 00:40:58;;;;;;;19.95;8.43;;;;;;;;;;4981633;28;20042;-67
2022/11/27 00:43:24;;;;;;;17.33;9.02;;;;;;;;;;4979920;28;20042;-68
2022/11/27 00:45:49;;;;;;;26.95;9.38;;;;;;;;;;4980294;28;20403;-68
2022/11/27 00:48:15;;;;;;;16.23;9.05;;;;;;;;;;4981102;28;20401;-69
2022/11/27 00:50:41;;;;;;;16.50;9.05;;;;;;;;;;4980882;28;20510;-68
2022/11/27 00:53:06;;;;;;;14.32;8.25;;;;;;;;;;4980815;28;20046;-68
2022/11/27 00:55:31;;;;;;;11.60;7.38;;;;;;;;;;4980842;28;20152;-68
2022/11/27 00:57:57;;;;;;;20.40;8.32;;;;;;;;;;4980482;28;20444;-68
2022/11/27 01:00:22;;;;;;;13.20;9.13;;;;;;;;;;4980467;28;20046;-68
2022/11/27 01:02:48;;;;;;;12.85;7.95;;;;;;;;;;4981417;28;20049;-67
2022/11/27 01:05:13;;;;;;;24.08;8.02;;;;;;;;;;4977569;28;20042;-67
2022/11/27 01:07:39;;;;;;;21.50;8.65;;;;;;;;;;4979654;28;20057;-68
2022/11/27 01:10:05;;;;;;;14.40;7.63;;;;;;;;;;4978906;28;20574;-68
2022/11/27 01:12:30;;;;;;;10.35;7.70;;;;;;;;;;4978643;28;20071;-67
2022/11/27 01:14:56;;;;;;;26.33;7.80;;;;;;;;;;4979166;28;20499;-68
2022/11/27 01:17:21;;;;;;;31.50;7.53;;;;;;;;;;4979624;28;20042;-67
2022/11/27 01:19:46;;;;;;;19.67;7.43;;;;;;;;;;4980445;28;20089;-68
2022/11/27 01:22:12;;;;;;;12.98;7.18;;;;;;;;;;4980715;28;20078;-67
2022/11/27 01:24:37;;;;;;;15.60;7.82;;;;;;;;;;4980609;28;20057;-68
2022/11/27 01:27:03;;;;;;;12.85;8.00;;;;;;;;;;4980188;28;20050;-68
2022/11/27 01:29:28;;;;;;;15.38;7.20;;;;;;;;;;4995157;28;20081;-68
2022/11/27 01:31:54;;;;;;;19.70;6.88;;;;;;;;;;4980710;28;20646;-68
2022/11/27 01:34:19;;;;;;;10.27;6.93;;;;;;;;;;4980515;28;20129;-67
2022/11/27 01:36:45;;;;;;;11.00;6.75;;;;;;;;;;4980972;28;20046;-68
2022/11/27 01:39:16;;;;;;;9.52;7.53;;;;;;;;;;4977566;28;20078;-68
2022/11/27 01:41:42;;;;;;;24.85;7.18;;;;;;;;;;4980695;28;20101;-68
2022/11/27 01:44:23;;;;;;;11.18;7.38;;;;;;;;;;4980427;28;20376;-68
2022/11/27 01:47:28;;;;;;;18.00;8.77;;;;;;;;;;4980330;28;20050;-68
2022/11/27 01:49:58;;;;;;;11.32;8.30;;;;;;;;;;4942031;28;20157;-67
2022/11/27 01:52:32;;;;;;;16.75;10.20;;;;;;;;;;4980219;28;20050;-67
2022/11/27 01:55:29;;;;;;;21.10;9.88;;;;;;;;;;4982681;28;20491;-67
2022/11/27 01:58:10;;;;;;;24.23;9.65;;;;;;;;;;4974250;28;20054;-67
2022/11/27 02:00:37;;;;;;;12.70;9.00;;;;;;;;;;4981749;28;20046;-67
2022/11/27 02:03:03;;;;;;;13.57;8.40;;;;;;;;;;4983179;28;20601;-67
2022/11/27 02:05:29;;;;;;;16.70;8.52;;;;;;;;;;4983202;28;20499;-68
2022/11/27 02:07:57;;;;;;;11.18;7.88;;;;;;;;;;4982639;28;20065;-68
2022/11/27 02:10:34;;;;;;;11.75;8.27;;;;;;;;;;4982885;28;20169;-68
2022/11/27 02:13:08;;;;;;;10.57;7.47;;;;;;;;;;4983787;28;20121;-68
2022/11/27 02:15:44;;;;;;;8.73;7.03;;;;;;;;;;4983062;28;20050;-68
2022/11/27 02:18:31;;;;;;;8.63;6.88;;;;;;;;;;4983802;28;20054;-68
2022/11/27 02:21:21;;;;;;;9.20;7.13;;;;;;;;;;4983848;28;20050;-68
2022/11/27 02:24:25;;;;;;;13.05;6.97;;;;;;;;;;4980797;28;21038;-68
2022/11/27 02:27:14;;;;;;;9.63;7.10;;;;;;;;;;4923467;29;20044;-68
2022/11/27 02:29:42;;;;;;;9.68;7.13;;;;;;;;;;4974148;28;20062;-68
2022/11/27 02:32:24;;;;;;;9.63;7.25;;;;;;;;;;4982813;28;20042;-68
2022/11/27 02:35:03;;;;;;;9.90;7.40;;;;;;;;;;4983257;28;20058;-68
2022/11/27 02:37:42;;;;;;;9.07;6.60;;;;;;;;;;4978769;28;20050;-68
2022/11/27 02:40:17;;;;;;;10.50;7.85;;;;;;;;;;4982902;28;20073;-68
2022/11/27 02:42:52;;;;;;;11.40;7.60;;;;;;;;;;4982029;28;20050;-68
2022/11/27 02:45:23;;;;;;;11.63;7.45;;;;;;;;;;4981562;28;20392;-68
2022/11/27 02:47:49;;;;;;;9.20;7.15;;;;;;;;;;4998265;28;20585;-68
2022/11/27 02:50:19;;;;;;;13.88;7.25;;;;;;;;;;4983031;28;20195;-67
2022/11/27 02:52:48;;;;;;;10.77;6.18;;;;;;;;;;4982953;28;20077;-66
2022/11/27 02:55:19;;;;;;;7.57;6.32;;;;;;;;;;4981296;28;20054;-66
2022/11/27 02:57:45;;;;;;;19.95;6.78;;;;;;;;;;4983083;28;20074;-66
2022/11/27 03:00:12;;;;;;;15.00;7.05;;;;;;;;;;4982815;28;20050;-67
2022/11/27 03:02:44;;;;;;;11.95;7.10;;;;;;;;;;4983250;28;20101;-67
2022/11/27 03:05:14;;;;;;;11.88;6.50;;;;;;;;;;4981324;28;20054;-67
2022/11/27 03:07:46;;;;;;;8.23;6.18;;;;;;;;;;4982484;28;20049;-67
2022/11/27 03:10:22;;;;;;;14.70;6.93;;;;;;;;;;4982907;28;20061;-67
2022/11/27 03:12:49;;;;;;;8.13;6.15;;;;;;;;;;4983018;28;20141;-67
2022/11/27 03:15:15;;;;;;;12.02;8.82;;;;;;;;;;4981649;28;20047;-67
2022/11/27 03:17:54;;;;;;;9.70;6.88;;;;;;;;;;4981874;28;20053;-67
2022/11/27 03:20:41;;;;;;;10.05;7.68;;;;;;;;;;4982493;28;20185;-67
2022/11/27 03:23:07;;;;;;;11.68;7.28;;;;;;;;;;4980979;28;20053;-68
2022/11/27 03:25:32;;;;;;;14.18;7.18;;;;;;;;;;4982325;28;20100;-67
2022/11/27 03:28:01;;;;;;;9.55;7.32;;;;;;;;;;4981605;28;20042;-67
2022/11/27 03:30:27;;;;;;;10.13;7.05;;;;;;;;;;4982204;28;20042;-67
2022/11/27 03:32:53;;;;;;;13.10;7.75;;;;;;;;;;4982438;28;21063;-67
2022/11/27 03:35:22;;;;;;;12.75;8.90;;;;;;;;;;4981601;28;20133;-68
2022/11/27 03:37:48;;;;;;;10.77;7.78;;;;;;;;;;4982817;28;20415;-67
2022/11/27 03:40:14;;;;;;;11.55;7.88;;;;;;;;;;4980994;28;20889;-68
2022/11/27 03:43:12;;;;;;;15.68;8.10;;;;;;;;;;4982293;28;20050;-67
2022/11/27 03:45:57;;;;;;;9.75;7.43;;;;;;;;;;4979375;28;20096;-67
2022/11/27 03:48:27;;;;;;;9.52;7.38;;;;;;;;;;4981994;28;20057;-67
2022/11/27 03:51:04;;;;;;;10.90;7.72;;;;;;;;;;4979667;28;20100;-67
2022/11/27 03:53:48;;;;;;;8.18;6.72;;;;;;;;;;4979898;28;20585;-67
2022/11/27 03:56:40;;;;;;;9.50;7.18;;;;;;;;;;4980668;28;20525;-67
2022/11/27 03:59:09;;;;;;;;;;;;;;;;;;4982468;28;20046;-66
2022/11/27 04:01:35;;;;;;;8.20;6.05;;;;;;;;;;4980422;28;19921;-67
2022/11/27 04:04:00;;;;;;;8.98;6.65;;;;;;;;;;4981412;28;20054;-66
2022/11/27 04:06:26;;;;;;;8.43;6.68;;;;;;;;;;4981870;28;20057;-66
2022/11/27 04:08:51;;;;;;;10.82;7.00;;;;;;;;;;4981832;28;20451;-65
2022/11/27 04:11:17;;;;;;;8.18;6.45;;;;;;;;;;4980346;28;20058;-66
2022/11/27 04:13:42;;;;;;;9.85;7.10;;;;;;;;;;4981491;28;20141;-66
2022/11/27 04:16:08;;;;;;;7.97;6.78;;;;;;;;;;4981616;28;20053;-66
2022/11/27 04:18:33;;;;;;;8.25;6.80;;;;;;;;;;4981640;28;20487;-65
2022/11/27 04:20:59;;;;;;;9.20;6.65;;;;;;;;;;4981302;28;20046;-65
2022/11/27 04:23:24;;;;;;;8.13;6.68;;;;;;;;;;4988394;28;20553;-65
2022/11/27 04:25:50;;;;;;;8.88;7.10;;;;;;;;;;4981261;28;20426;-65
2022/11/27 04:28:18;;;;;;;7.78;6.43;;;;;;;;;;4981668;28;20053;-65
2022/11/27 04:30:44;;;;;;;7.80;6.32;;;;;;;;;;4981091;28;20096;-67
2022/11/27 04:33:10;;;;;;;8.38;6.60;;;;;;;;;;4978814;28;20049;-67
2022/11/27 04:35:35;;;;;;;8.60;6.60;;;;;;;;;;4981056;28;20050;-67
2022/11/27 04:38:01;;;;;;;9.38;6.68;;;;;;;;;;4979592;28;20504;-67
2022/11/27 04:40:29;;;;;;;8.35;6.53;;;;;;;;;;4981467;28;20095;-67
2022/11/27 04:42:54;;;;;;;9.07;6.30;;;;;;;;;;4981312;28;20057;-67
2022/11/27 04:45:20;;;;;;;9.57;7.22;;;;;;;;;;4978540;28;20042;-67
2022/11/27 04:47:45;;;;;;;10.52;6.30;;;;;;;;;;4981438;28;20054;-67
2022/11/27 04:50:11;;;;;;;8.90;6.85;;;;;;;;;;4979980;28;20068;-67
2022/11/27 04:52:36;;;;;;;9.25;6.75;;;;;;;;;;4980972;28;20042;-67
2022/11/27 04:55:02;;;;;;;9.50;6.90;;;;;;;;;;4980851;28;20054;-67
2022/11/27 04:57:28;;;;;;;8.13;6.72;;;;;;;;;;4979860;28;20073;-67
2022/11/27 04:59:53;;;;;;;8.93;6.65;;;;;;;;;;4980735;28;20098;-67
2022/11/27 05:02:19;;;;;;;7.20;5.95;;;;;;;;;;4979469;28;20072;-68
2022/11/27 05:04:44;;;;;;;8.18;6.53;;;;;;;;;;4980858;28;20053;-67
2022/11/27 05:07:10;;;;;;;7.05;5.85;;;;;;;;;;4979643;28;20054;-67
2022/11/27 05:09:35;;;;;;;8.18;6.72;;;;;;;;;;4980918;28;20042;-67
2022/11/27 05:12:00;;;;;;;8.60;6.60;;;;;;;;;;4981211;28;20078;-67
2022/11/27 05:14:28;;;;;;;7.35;5.60;;;;;;;;;;4980635;28;20372;-68
2022/11/27 05:16:57;;;;;;;14.82;6.32;;;;;;;;;;4980988;28;20050;-67
2022/11/27 05:19:24;;;;;;;8.88;6.97;;;;;;;;;;4979282;28;20047;-69
2022/11/27 05:21:50;;;;;;;12.95;8.77;;;;;;;;;;4979886;28;20046;-69
2022/11/27 05:24:17;;;;;;;18.45;11.60;;;;;;;;;;4980196;28;20054;-69
2022/11/27 05:26:43;;;;;;;10.77;7.38;;;;;;;;;;4980226;28;20137;-69
2022/11/27 05:29:10;;;;;;;21.02;8.93;;;;;;;;;;4979941;28;20132;-70
2022/11/27 05:31:36;;;;;;;9.45;7.05;;;;;;;;;;4984127;28;20475;-70
2022/11/27 05:34:02;;;;;;;9.35;6.35;;;;;;;;;;4983881;28;20514;-69
2022/11/27 05:36:28;;;;;;;9.57;7.35;;;;;;;;;;4984202;28;20172;-70
2022/11/27 05:38:54;;;;;;;8.57;6.10;;;;;;;;;;4984298;28;20050;-69
2022/11/27 05:41:19;;;;;;;7.82;6.32;;;;;;;;;;4982610;28;20834;-70
2022/11/27 05:43:45;;;;;;;7.70;6.00;;;;;;;;;;4984435;28;20418;-69
2022/11/27 05:46:13;;;;;;;7.70;6.38;;;;;;;;;;4984481;28;20128;-69
2022/11/27 05:48:39;;;;;;;8.40;5.88;;;;;;;;;;4984519;28;20046;-69
2022/11/27 05:51:04;;;;;;;9.02;6.80;;;;;;;;;;4983562;28;20103;-69
2022/11/27 05:53:30;;;;;;;7.05;5.90;;;;;;;;;;4983731;28;20157;-69
2022/11/27 05:56:10;;;;;;;7.43;6.00;;;;;;;;;;4984144;28;20069;-69
2022/11/27 05:58:37;;;;;;;7.90;6.10;;;;;;;;;;4984263;28;20035;-69
2022/11/27 06:01:04;;;;;;;7.88;6.53;;;;;;;;;;4982189;28;20526;-69
2022/11/27 06:03:29;;;;;;;8.10;5.97;;;;;;;;;;4982505;28;20046;-69
2022/11/27 06:05:55;;;;;;;8.90;6.28;;;;;;;;;;4983620;28;20407;-69
2022/11/27 06:08:20;;;;;;;9.88;6.38;;;;;;;;;;4998383;28;20050;-69
2022/11/27 06:10:47;;;;;;;8.65;6.68;;;;;;;;;;4983683;28;20068;-69
2022/11/27 06:13:13;;;;;;;8.38;6.28;;;;;;;;;;4981949;28;20056;-69
2022/11/27 06:15:39;;;;;;;7.47;5.75;;;;;;;;;;4983229;28;20605;-68
2022/11/27 06:18:05;;;;;;;10.38;6.22;;;;;;;;;;4978600;28;20046;-70
2022/11/27 06:20:31;;;;;;;7.80;6.53;;;;;;;;;;4981112;28;20105;-70
2022/11/27 06:22:57;;;;;;;9.93;7.68;;;;;;;;;;4981573;28;20047;-69
2022/11/27 06:25:23;;;;;;;9.63;6.50;;;;;;;;;;4978892;28;20057;-70
2022/11/27 06:27:48;;;;;;;12.32;5.38;;;;;;;;;;4981551;28;20511;-71
2022/11/27 06:30:14;;;;;;;8.80;6.90;;;;;;;;;;4980941;28;20161;-69
2022/11/27 06:32:40;;;;;;;12.05;6.38;;;;;;;;;;4981617;28;20096;-69
2022/11/27 06:35:06;;;;;;;13.73;7.55;;;;;;;;;;4980204;28;20120;-70
2022/11/27 06:37:31;;;;;;;21.17;7.68;;;;;;;;;;4979063;28;20115;-69
2022/11/27 06:39:57;;;;;;;23.52;8.25;;;;;;;;;;4977258;28;20050;-70
2022/11/27 06:42:22;;;;;;;12.38;7.40;;;;;;;;;;4980131;28;20042;-70
2022/11/27 06:44:47;;;;;;;34.53;7.72;;;;;;;;;;4980863;28;20184;-70
2022/11/27 06:47:13;;;;;;;29.88;8.50;;;;;;;;;;4979105;28;20050;-70
2022/11/27 06:49:38;;;;;;;22.08;7.00;;;;;;;;;;4980744;28;20046;-70
2022/11/27 06:52:04;;;;;;;41.72;7.72;;;;;;;;;;4980958;28;20046;-70
2022/11/27 06:54:30;;;;;;;36.92;6.88;;;;;;;;;;4980089;28;20054;-70
2022/11/27 06:56:57;;;;;;;23.98;6.72;;;;;;;;;;4976810;28;20157;-70
2022/11/27 06:59:23;;;;;;;27.77;10.82;;;;;;;;;;4980556;28;20046;-70
2022/11/27 07:01:48;;;;;;;25.30;13.45;;;;;;;;;;4979718;28;20065;-70
2022/11/27 07:04:15;;;;;;;18.33;8.18;;;;;;;;;;4981049;28;20753;-70
2022/11/27 07:06:41;;;;;;;18.70;7.20;;;;;;;;;;4993608;28;20128;-70
2022/11/27 07:09:07;;;;;;;13.02;7.03;;;;;;;;;;4980553;28;20089;-70
2022/11/27 07:11:33;;;;;;;9.75;6.07;;;;;;;;;;4980823;28;20077;-70
2022/11/27 07:14:01;;;;;;;15.25;6.35;;;;;;;;;;4979917;28;20145;-70
2022/11/27 07:16:29;;;;;;;12.32;6.60;;;;;;;;;;4981303;28;20566;-70
2022/11/27 07:18:58;;;;;;;10.98;5.75;;;;;;;;;;4994332;28;20050;-70
2022/11/27 07:21:24;;;;;;;9.07;6.13;;;;;;;;;;4978281;28;20050;-70
2022/11/27 07:23:50;;;;;;;10.65;7.22;;;;;;;;;;4979319;28;20128;-70
2022/11/27 07:26:19;;;;;;;9.60;7.03;;;;;;;;;;4980163;28;20061;-71
2022/11/27 07:28:45;;;;;;;9.43;6.75;;;;;;;;;;4981588;28;20125;-71
2022/11/27 07:31:12;;;;;;;9.45;6.90;;;;;;;;;;4979911;28;20129;-71
2022/11/27 07:33:38;;;;;;;9.25;6.90;;;;;;;;;;4979590;28;20107;-71
2022/11/27 07:36:09;;;;;;;9.70;6.78;;;;;;;;;;4980586;28;20050;-71
2022/11/27 07:38:34;;;;;;;7.90;6.00;;;;;;;;;;4981618;28;20046;-70
2022/11/27 07:41:01;;;;;;;8.60;6.55;;;;;;;;;;4980502;28;20065;-70
2022/11/27 07:43:27;;;;;;;11.38;6.82;;;;;;;;;;4980609;28;20054;-70
2022/11/27 07:45:53;;;;;;;8.32;5.53;;;;;;;;;;4981245;28;20058;-70
2022/11/27 07:48:18;;;;;;;5.15;3.97;;;;;;;;;;4981460;28;20048;-70
2022/11/27 07:50:44;;;;;;;10.98;4.63;;;;;;;;;;4981418;28;20925;-71
2022/11/27 07:53:09;;;;;;;5.18;4.00;;;;;;;;;;4979396;28;20042;-72
2022/11/27 07:55:38;;;;;;;8.02;4.75;;;;;;;;;;4981044;28;20053;-69
2022/11/27 07:58:04;;;;;;;7.18;5.47;;;;;;;;;;4980941;28;20487;-70
2022/11/27 08:00:30;;;;;;;5.63;4.80;;;;;;;;;;4979948;28;20058;-69
2022/11/27 08:02:55;;;;;;;4.00;3.70;;;;;;;;;;4980236;28;20091;-70
2022/11/27 08:05:21;;;;;;;4.07;3.67;;;;;;;;;;4980038;28;20077;-70
2022/11/27 08:07:46;;;;;;;35.65;4.25;;;;;;;;;;4980910;28;20058;-71
2022/11/27 08:10:12;;;;;;;9.48;3.50;;;;;;;;;;4980304;28;20050;-71
2022/11/27 08:12:37;;;;;;;25.17;4.43;;;;;;;;;;4979396;28;20058;-71
2022/11/27 08:15:04;;;;;;;18.05;4.75;;;;;;;;;;4979215;28;20046;-71
2022/11/27 08:17:30;;;;;;;19.42;4.20;;;;;;;;;;4979540;28;20104;-72
2022/11/27 08:19:55;;;;;;;24.95;4.47;;;;;;;;;;4979946;28;20054;-71
2022/11/27 08:22:21;;;;;;;35.70;5.90;;;;;;;;;;4979646;28;20077;-71
2022/11/27 08:24:47;;;;;;;37.80;6.85;;;;;;;;;;4979160;28;20100;-71
2022/11/27 08:27:13;;;;;;;36.25;6.45;;;;;;;;;;4979542;28;20052;-72
2022/11/27 08:29:38;;;;;;;21.63;4.85;;;;;;;;;;4978333;28;20050;-71
2022/11/27 08:32:05;;;;;;;29.73;5.53;;;;;;;;;;4979163;28;20054;-70
2022/11/27 08:34:31;;;;;;;34.83;5.70;;;;;;;;;;4979998;28;20089;-72
2022/11/27 08:36:56;;;;;;;65.53;5.35;;;;;;;;;;4978922;28;20108;-71
2022/11/27 08:39:22;;;;;;;18.55;4.05;;;;;;;;;;4979409;28;20050;-72
2022/11/27 08:41:47;;;;;;;25.08;5.43;;;;;;;;;;4980942;28;20519;-73
2022/11/27 08:44:13;;;;;;;16.05;4.63;;;;;;;;;;4978252;28;20046;-72
2022/11/27 08:46:38;;;;;;;12.60;5.15;;;;;;;;;;4976562;28;20042;-72
2022/11/27 08:49:04;;;;;;;15.73;4.68;;;;;;;;;;4978364;28;20670;-72
2022/11/27 08:51:29;;;;;;;15.18;4.95;;;;;;;;;;4978288;28;20129;-72
2022/11/27 08:53:55;;;;;;;13.65;4.93;;;;;;;;;;4980500;28;20046;-71
2022/11/27 08:56:24;;;;;;;6.82;3.92;;;;;;;;;;4979839;28;20038;-72
2022/11/27 08:58:50;;;;;;;10.98;5.00;;;;;;;;;;4977873;28;20082;-69
2022/11/27 09:01:20;;;;;;;23.35;4.53;;;;;;;;;;4978573;28;20038;-71
2022/11/27 09:03:47;;;;;;;59.88;4.63;;;;;;;;;;4979483;28;20629;-71
2022/11/27 09:06:15;;;;;;;19.67;4.03;;;;;;;;;;4979858;28;20081;-71
2022/11/27 09:08:42;;;;;;;16.63;4.70;;;;;;;;;;4979344;28;20046;-71
2022/11/27 09:11:09;;;;;;;22.73;5.15;;;;;;;;;;4980154;28;20054;-70
2022/11/27 09:13:35;;;;;;;55.03;5.55;;;;;;;;;;4980059;28;20061;-71
2022/11/27 09:16:08;;;;;;;17.20;3.50;;;;;;;;;;4979875;28;20059;-71
2022/11/27 09:18:34;;;;;;;41.88;5.70;;;;;;;;;;4980040;28;20338;-71
2022/11/27 09:21:10;;;;;;;58.92;4.95;;;;;;;;;;4979379;28;20141;-71
2022/11/27 09:23:38;;;;;;;43.17;5.88;;;;;;;;;;4978267;28;20098;-71
2022/11/27 09:26:09;;;;;;;41.97;6.90;;;;;;;;;;4980495;28;20051;-71
2022/11/27 09:28:36;;;;;;;28.33;5.43;;;;;;;;;;4978898;28;20074;-71
2022/11/27 09:31:04;;;;;;;71.53;5.47;;;;;;;;;;4979067;28;20133;-71
2022/11/27 09:33:32;;;;;;;44.55;5.60;;;;;;;;;;4979755;28;20049;-71
2022/11/27 09:36:01;;;;;;;41.75;5.80;;;;;;;;;;4979604;28;20073;-70
2022/11/27 09:38:27;;;;;;;56.90;5.30;;;;;;;;;;4994993;28;20042;-70
2022/11/27 09:40:59;;;;;;;49.20;6.10;;;;;;;;;;4978830;28;20044;-73
2022/11/27 09:43:30;;;;;;;58.15;6.65;;;;;;;;;;4979314;28;20535;-69
2022/11/27 09:46:00;;;;;;;59.00;5.40;;;;;;;;;;4979306;28;20145;-69
2022/11/27 09:48:36;;;;;;;88.55;7.00;;;;;;;;;;4980345;28;20128;-70
2022/11/27 09:51:10;;;;;;;74.90;6.32;;;;;;;;;;4980444;28;20054;-70
2022/11/27 09:53:46;;;;;;;59.88;6.30;;;;;;;;;;4979227;28;20495;-70
2022/11/27 09:56:15;;;;;;;24.35;5.20;;;;;;;;;;4980238;28;20133;-72
2022/11/27 09:58:42;;;;;;;51.72;7.15;;;;;;;;;;4980573;28;20096;-69
2022/11/27 10:01:16;;;;;;;42.85;4.88;;;;;;;;;;4980055;28;20474;-69
2022/11/27 10:03:43;;;;;;;39.08;6.00;;;;;;;;;;4976510;28;20571;-70
2022/11/27 10:06:19;;;;;;;59.60;6.97;;;;;;;;;;4980108;28;20459;-69
2022/11/27 10:08:58;;;;;;;62.17;6.13;;;;;;;;;;4980489;28;20106;-68
2022/11/27 10:11:41;;;;;;;53.72;6.25;;;;;;;;;;4979714;28;20046;-69
2022/11/27 10:14:19;;;;;;;53.20;6.10;;;;;;;;;;4979700;28;20046;-69
2022/11/27 10:16:49;;;;;;;39.03;6.35;;;;;;;;;;4982664;28;20050;-70
2022/11/27 10:19:37;;;;;;;45.40;8.55;;;;;;;;;;4982489;28;20495;-71
2022/11/27 10:22:27;;;;;;;27.90;6.20;;;;;;;;;;4980231;28;20135;-71
2022/11/27 10:24:55;;;;;;;18.73;4.55;;;;;;;;;;4981628;28;20050;-70
2022/11/27 10:27:33;;;;;;;27.90;5.43;;;;;;;;;;4981381;28;20883;-71
2022/11/27 10:30:00;;;;;;;32.60;5.20;;;;;;;;;;4983255;28;20499;-71
2022/11/27 10:32:29;;;;;;;16.98;4.25;;;;;;;;;;4982232;28;20093;-71
2022/11/27 10:35:08;;;;;;;16.80;5.70;;;;;;;;;;4981759;28;20057;-73
2022/11/27 10:37:39;;;;;;;31.33;5.50;;;;;;;;;;4981131;28;20057;-71
2022/11/27 10:40:07;;;;;;;43.55;6.90;;;;;;;;;;4982259;28;20119;-72
2022/11/27 10:42:39;;;;;;;30.15;6.25;;;;;;;;;;4982292;28;20049;-71
2022/11/27 10:45:16;;;;;;;22.38;5.00;;;;;;;;;;4982294;28;20078;-71
2022/11/27 10:47:45;;;;;;;41.53;4.95;;;;;;;;;;4975288;28;20137;-71
2022/11/27 10:50:15;;;;;;;38.05;5.75;;;;;;;;;;4981774;28;20081;-71
2022/11/27 10:52:58;;;;;;;53.13;6.53;;;;;;;;;;4980844;28;20876;-71
2022/11/27 10:55:54;;;;;;;61.03;7.13;;;;;;;;;;4978633;28;20046;-71
2022/11/27 10:58:32;;;;;;;43.55;6.18;;;;;;;;;;4980908;28;20100;-72
2022/11/27 11:01:15;;;;;;;40.88;6.32;;;;;;;;;;4979867;28;20050;-71
2022/11/27 11:03:41;;;;;;;91.22;8.48;;;;;;;;;;4979167;28;20054;-71
2022/11/27 11:06:20;;;;;;;81.55;9.50;;;;;;;;;;4979118;28;20054;-72
2022/11/27 11:08:45;;;;;;;76.93;10.10;;;;;;;;;;4982112;28;20053;-72
2022/11/27 11:11:11;;;;;;;59.00;11.98;;;;;;;;;;4984570;28;20058;-74
2022/11/27 11:13:39;;;;;;;53.97;9.57;;;;;;;;;;4985189;28;20058;-72
2022/11/27 11:16:29;;;;;;;68.22;9.88;;;;;;;;;;4985430;28;20499;-71
2022/11/27 11:18:55;;;;;;;100.28;11.70;;;;;;;;;;4985825;28;20058;-71
2022/11/27 11:21:29;;;;;;;25.85;8.95;;;;;;;;;;4983893;28;20050;-72
2022/11/27 11:24:05;;;;;;;37.20;8.85;;;;;;;;;;4989747;28;20046;-72
2022/11/27 11:26:39;;;;;;;34.10;10.30;;;;;;;;;;4983845;28;20188;-72
2022/11/27 11:29:16;;;;;;;33.20;10.07;;;;;;;;;;4984877;28;20051;-72
2022/11/27 11:31:42;;;;;;;30.17;9.30;;;;;;;;;;4989130;28;20409;-72
2022/11/27 11:34:22;;;;;;;45.00;7.50;;;;;;;;;;4984488;28;20058;-72
2022/11/27 11:36:59;;;;;;;14.57;9.05;;;;;;;;;;4984712;28;20050;-72
2022/11/27 11:39:31;;;;;;;20.35;9.30;;;;;;;;;;4982336;28;20042;-73
2022/11/27 11:41:57;;;;;;;21.90;8.52;;;;;;;;;;4982717;28;20495;-72
2022/11/27 11:44:31;;;;;;;16.40;7.95;;;;;;;;;;4982026;28;20141;-71
2022/11/27 11:46:58;;;;;;;37.90;6.28;;;;;;;;;;4981818;28;20133;-71
2022/11/27 11:49:26;;;;;;;26.52;9.55;;;;;;;;;;4980839;28;20042;-71
2022/11/27 11:52:30;;;;;;;34.33;9.60;;;;;;;;;;4994553;28;20043;-71
2022/11/27 11:55:09;;;;;;;19.67;8.95;;;;;;;;;;4958305;28;20053;-71
2022/11/27 11:58:19;;;;;;;27.05;8.18;;;;;;;;;;4967987;28;20104;-71
2022/11/27 12:00:51;;;;;;;23.02;9.35;;;;;;;;;;4979344;28;20077;-71
2022/11/27 12:03:46;;;;;;;28.58;9.35;;;;;;;;;;4978965;28;20127;-72
2022/11/27 12:06:35;;;;;;;17.05;9.95;;;;;;;;;;4969958;28;20046;-72
2022/11/27 12:09:22;;;;;;;24.92;8.80;;;;;;;;;;4981886;28;20061;-72
2022/11/27 12:11:59;;;;;;;12.93;8.30;;;;;;;;;;4961001;28;20069;-71
2022/11/27 12:14:39;;;;;;;19.15;8.27;;;;;;;;;;4975238;28;20052;-70
2022/11/27 12:17:05;;;;;;;14.30;9.40;;;;;;;;;;4977140;28;20058;-72
2022/11/27 12:19:40;;;;;;;33.53;9.07;;;;;;;;;;4978500;28;20057;-71
2022/11/27 12:22:27;;;;;;;21.92;8.65;;;;;;;;;;4993065;28;20057;-70
2022/11/27 12:25:01;;;;;;;19.77;8.63;;;;;;;;;;4978465;28;20054;-71
2022/11/27 12:27:51;;;;;;;15.80;9.32;;;;;;;;;;4976979;28;20455;-70
2022/11/27 12:30:20;;;;;;;24.60;10.35;;;;;;;;;;4976236;28;20054;-69
2022/11/27 12:33:03;;;;;;;26.95;9.98;;;;;;;;;;4979848;28;20046;-69
2022/11/27 12:35:47;;;;;;;21.65;11.55;;;;;;;;;;4980059;28;20046;-69
2022/11/27 12:38:31;;;;;;;21.02;10.80;;;;;;;;;;4978732;28;20735;-70
2022/11/27 12:41:11;;;;;;;26.58;9.80;;;;;;;;;;4979791;28;20047;-69
2022/11/27 12:43:45;;;;;;;17.58;11.50;;;;;;;;;;4979321;28;20491;-69
2022/11/27 12:46:36;;;;;;;22.08;10.40;;;;;;;;;;4979216;28;20500;-70
2022/11/27 12:49:16;;;;;;;18.05;8.90;;;;;;;;;;4976462;28;20053;-69
2022/11/27 12:51:57;;;;;;;19.48;11.15;;;;;;;;;;4974598;28;20097;-70
2022/11/27 12:54:41;;;;;;;18.27;10.60;;;;;;;;;;4983360;28;20503;-70
2022/11/27 12:57:18;;;;;;;16.83;10.15;;;;;;;;;;4980357;28;20038;-70
2022/11/27 12:59:55;;;;;;;12.75;9.00;;;;;;;;;;4974881;28;20093;-70
2022/11/27 13:02:34;;;;;;;18.67;10.65;;;;;;;;;;4979460;28;20231;-70
2022/11/27 13:05:10;;;;;;;25.02;12.45;;;;;;;;;;4982419;28;20038;-70
2022/11/27 13:07:49;;;;;;;20.42;9.13;;;;;;;;;;4981056;28;20579;-70
2022/11/27 13:10:33;;;;;;;13.05;8.80;;;;;;;;;;4979408;28;20042;-71
2022/11/27 13:13:07;;;;;;;59.17;10.30;;;;;;;;;;4980019;28;20042;-71
2022/11/27 13:15:43;;;;;;;22.60;10.35;;;;;;;;;;4979585;28;20042;-70
2022/11/27 13:18:19;;;;;;;39.22;12.13;;;;;;;;;;4978930;28;20052;-70
2022/11/27 13:20:46;;;;;;;69.93;12.70;;;;;;;;;;4981582;28;20189;-70
2022/11/27 13:23:11;;;;;;;42.28;10.10;;;;;;;;;;4982060;28;20284;-69
2022/11/27 13:25:45;;;;;;;82.60;8.93;;;;;;;;;;4980508;28;20454;-69
2022/11/27 13:28:36;;;;;;;23.30;7.07;;;;;;;;;;4982078;28;20070;-70
2022/11/27 13:31:03;;;;;;;17.45;8.98;;;;;;;;;;4981277;28;20050;-71
2022/11/27 13:33:37;;;;;;;31.67;13.27;;;;;;;;;;4978235;28;20038;-71
2022/11/27 13:36:05;;;;;;;69.93;13.55;;;;;;;;;;4978112;28;20061;-71
2022/11/27 13:38:33;;;;;;;102.90;12.73;;;;;;;;;;4978534;28;20081;-70
2022/11/27 13:41:04;;;;;;;34.28;11.13;;;;;;;;;;4980160;28;20062;-70
2022/11/27 13:43:46;;;;;;;73.97;10.63;;;;;;;;;;4984242;28;20050;-70
2022/11/27 13:46:27;;;;;;;40.17;12.75;;;;;;;;;;4976493;28;20301;-71
2022/11/27 13:49:04;;;;;;;38.55;11.68;;;;;;;;;;4990741;28;20054;-70
2022/11/27 13:51:37;;;;;;;60.05;11.25;;;;;;;;;;4978368;28;20137;-68
2022/11/27 13:54:11;;;;;;;87.25;14.00;;;;;;;;;;4980671;28;20442;-71
2022/11/27 13:56:37;;;;;;;183.25;16.58;;;;;;;;;;4983757;28;20145;-72
2022/11/27 13:59:14;;;;;;;58.95;11.05;;;;;;;;;;4983692;28;20467;-72
2022/11/27 14:01:51;;;;;;;113.05;11.63;;;;;;;;;;4982132;28;20039;-71
2022/11/27 14:04:16;;;;;;;86.90;9.18;;;;;;;;;;4980462;28;20046;-72
2022/11/27 14:06:42;;;;;;;92.63;12.02;;;;;;;;;;4981949;28;20042;-69
2022/11/27 14:09:07;;;;;;;93.45;9.73;;;;;;;;;;4980309;28;20848;-69
2022/11/27 14:11:40;;;;;;;82.72;12.25;;;;;;;;;;4980658;28;20137;-70
2022/11/27 14:14:19;;;;;;;73.85;11.75;;;;;;;;;;4981831;28;20054;-71
2022/11/27 14:17:00;;;;;;;80.78;12.75;;;;;;;;;;4981343;28;20418;-70
2022/11/27 14:19:44;;;;;;;58.65;16.38;;;;;;;;;;4979058;28;20142;-70
2022/11/27 14:22:32;;;;;;;61.38;20.40;;;;;;;;;;4981735;28;20519;-68
2022/11/27 14:24:57;;;;;;;107.57;18.25;;;;;;;;;;4981084;28;20410;-70
2022/11/27 14:27:27;;;;;;;13.00;7.20;;;;;;;;;;4980896;28;20050;-69
2022/11/27 14:29:52;;;;;;;62.10;18.33;;;;;;;;;;4982409;28;20537;-70
2022/11/27 14:32:19;;;;;;;36.17;12.90;;;;;;;;;;4981702;28;20050;-69
2022/11/27 14:34:46;;;;;;;50.03;10.95;;;;;;;;;;4981309;28;20061;-70
2022/11/27 14:37:26;;;;;;;44.17;19.50;;;;;;;;;;4980753;28;20060;-69
2022/11/27 14:39:52;;;;;;;50.17;17.27;;;;;;;;;;4982132;28;20132;-69
2022/11/27 14:42:21;;;;;;;26.80;13.77;;;;;;;;;;4981592;28;20058;-69
2022/11/27 14:44:46;;;;;;;47.47;13.88;;;;;;;;;;4981699;28;20133;-69
2022/11/27 14:47:18;;;;;;;32.65;14.48;;;;;;;;;;4980778;28;20196;-70
2022/11/27 14:49:44;;;;;;;;;;;;;;;;;;4980677;28;21259;-69
2022/11/27 14:52:13;;;;;;;46.55;12.65;;;;;;;;;;4981654;28;19953;-68